sensor_id;sensor_type;location;lat;lon;timestamp;pressure;altitude;pressure_sealevel;temperature
61703;BMP280;47622;47.726;3.298;2023-06-05T00:00:55;99130.00;;;16.72
61703;BMP280;47622;47.726;3.298;2023-06-05T00:03:21;99127.44;;;16.76
61703;BMP280;47622;47.726;3.298;2023-06-05T00:05:46;99131.50;;;16.89
61703;BMP280;47622;47.726;3.298;2023-06-05T00:08:12;99131.34;;;16.82
61703;BMP280;47622;47.726;3.298;2023-06-05T00:10:37;99127.94;;;16.66
61703;BMP280;47622;47.726;3.298;2023-06-05T00:13:03;99131.09;;;16.71
61703;BMP280;47622;47.726;3.298;2023-06-05T00:15:29;99131.00;;;16.83
61703;BMP280;47622;47.726;3.298;2023-06-05T00:17:56;99129.97;;;16.88
61703;BMP280;47622;47.726;3.298;2023-06-05T00:20:22;99131.09;;;16.87
61703;BMP280;47622;47.726;3.298;2023-06-05T00:22:49;99132.34;;;16.93
61703;BMP280;47622;47.726;3.298;2023-06-05T00:25:15;99126.56;;;16.87
61703;BMP280;47622;47.726;3.298;2023-06-05T00:27:40;99131.50;;;16.89
61703;BMP280;47622;47.726;3.298;2023-06-05T00:30:10;99121.63;;;16.86
61703;BMP280;47622;47.726;3.298;2023-06-05T00:32:36;99128.97;;;16.92
61703;BMP280;47622;47.726;3.298;2023-06-05T00:35:02;99123.16;;;16.87
61703;BMP280;47622;47.726;3.298;2023-06-05T00:37:28;99129.88;;;16.84
61703;BMP280;47622;47.726;3.298;2023-06-05T00:39:54;99125.88;;;16.75
61703;BMP280;47622;47.726;3.298;2023-06-05T00:42:20;99121.66;;;16.58
61703;BMP280;47622;47.726;3.298;2023-06-05T00:44:45;99119.22;;;16.65
61703;BMP280;47622;47.726;3.298;2023-06-05T00:47:14;99116.22;;;16.51
61703;BMP280;47622;47.726;3.298;2023-06-05T00:49:40;99123.78;;;16.52
61703;BMP280;47622;47.726;3.298;2023-06-05T00:52:06;99116.31;;;16.54
61703;BMP280;47622;47.726;3.298;2023-06-05T00:54:33;99114.09;;;16.56
61703;BMP280;47622;47.726;3.298;2023-06-05T00:56:59;99118.47;;;16.65
61703;BMP280;47622;47.726;3.298;2023-06-05T00:59:26;99115.59;;;16.73
61703;BMP280;47622;47.726;3.298;2023-06-05T01:01:52;99109.53;;;16.73
61703;BMP280;47622;47.726;3.298;2023-06-05T01:04:18;99120.59;;;16.75
61703;BMP280;47622;47.726;3.298;2023-06-05T01:06:44;99119.13;;;16.77
61703;BMP280;47622;47.726;3.298;2023-06-05T01:09:10;99126.56;;;16.72
61703;BMP280;47622;47.726;3.298;2023-06-05T01:11:50;99117.75;;;16.68
61703;BMP280;47622;47.726;3.298;2023-06-05T01:14:21;99115.88;;;16.68
61703;BMP280;47622;47.726;3.298;2023-06-05T01:16:54;99120.13;;;16.73
61703;BMP280;47622;47.726;3.298;2023-06-05T01:19:23;99119.22;;;16.81
61703;BMP280;47622;47.726;3.298;2023-06-05T01:21:56;99110.56;;;16.84
61703;BMP280;47622;47.726;3.298;2023-06-05T01:24:22;99121.78;;;16.77
61703;BMP280;47622;47.726;3.298;2023-06-05T01:29:54;99117.69;;;16.80
61703;BMP280;47622;47.726;3.298;2023-06-05T01:32:48;99107.25;;;16.87
61703;BMP280;47622;47.726;3.298;2023-06-05T01:35:20;99114.22;;;16.95
61703;BMP280;47622;47.726;3.298;2023-06-05T01:37:49;99114.41;;;17.02
61703;BMP280;47622;47.726;3.298;2023-06-05T01:40:21;99104.63;;;17.06
61703;BMP280;47622;47.726;3.298;2023-06-05T01:42:48;99104.78;;;17.13
61703;BMP280;47622;47.726;3.298;2023-06-05T01:45:14;99101.31;;;17.09
61703;BMP280;47622;47.726;3.298;2023-06-05T01:47:41;99107.44;;;17.13
61703;BMP280;47622;47.726;3.298;2023-06-05T01:50:08;99100.91;;;17.07
61703;BMP280;47622;47.726;3.298;2023-06-05T01:52:35;99110.75;;;17.07
61703;BMP280;47622;47.726;3.298;2023-06-05T01:55:02;99095.06;;;17.17
61703;BMP280;47622;47.726;3.298;2023-06-05T01:57:28;99097.16;;;17.08
61703;BMP280;47622;47.726;3.298;2023-06-05T01:59:54;99104.63;;;17.06
61703;BMP280;47622;47.726;3.298;2023-06-05T02:02:21;99097.03;;;17.05
61703;BMP280;47622;47.726;3.298;2023-06-05T02:04:48;99103.81;;;17.02
61703;BMP280;47622;47.726;3.298;2023-06-05T02:07:14;99091.69;;;17.01
61703;BMP280;47622;47.726;3.298;2023-06-05T02:09:41;99093.13;;;16.99
61703;BMP280;47622;47.726;3.298;2023-06-05T02:12:07;99094.59;;;16.96
61703;BMP280;47622;47.726;3.298;2023-06-05T02:14:33;99088.75;;;17.06
61703;BMP280;47622;47.726;3.298;2023-06-05T02:17:04;99098.91;;;17.04
61703;BMP280;47622;47.726;3.298;2023-06-05T02:19:34;99103.28;;;17.12
61703;BMP280;47622;47.726;3.298;2023-06-05T02:22:00;99101.41;;;17.13
61703;BMP280;47622;47.726;3.298;2023-06-05T02:24:26;99110.09;;;17.13
61703;BMP280;47622;47.726;3.298;2023-06-05T02:26:52;99101.72;;;17.11
61703;BMP280;47622;47.726;3.298;2023-06-05T02:29:18;99109.00;;;17.14
61703;BMP280;47622;47.726;3.298;2023-06-05T02:31:43;99104.63;;;17.06
61703;BMP280;47622;47.726;3.298;2023-06-05T02:34:09;99106.63;;;16.93
61703;BMP280;47622;47.726;3.298;2023-06-05T02:36:35;99104.34;;;16.92
61703;BMP280;47622;47.726;3.298;2023-06-05T02:39:02;99095.94;;;16.90
61703;BMP280;47622;47.726;3.298;2023-06-05T02:41:30;99099.91;;;16.96
61703;BMP280;47622;47.726;3.298;2023-06-05T02:43:55;99095.78;;;16.83
61703;BMP280;47622;47.726;3.298;2023-06-05T02:46:22;99100.44;;;16.86
61703;BMP280;47622;47.726;3.298;2023-06-05T02:48:50;99104.88;;;16.82
61703;BMP280;47622;47.726;3.298;2023-06-05T02:51:16;99098.44;;;16.83
61703;BMP280;47622;47.726;3.298;2023-06-05T02:53:42;99104.75;;;16.78
61703;BMP280;47622;47.726;3.298;2023-06-05T02:56:09;99095.44;;;16.84
61703;BMP280;47622;47.726;3.298;2023-06-05T02:58:35;99101.78;;;16.80
61703;BMP280;47622;47.726;3.298;2023-06-05T03:01:01;99097.84;;;16.74
61703;BMP280;47622;47.726;3.298;2023-06-05T03:03:31;99101.53;;;16.69
61703;BMP280;47622;47.726;3.298;2023-06-05T03:06:01;99104.00;;;16.78
61703;BMP280;47622;47.726;3.298;2023-06-05T03:08:30;99103.84;;;16.71
61703;BMP280;47622;47.726;3.298;2023-06-05T03:10:56;99106.91;;;16.73
61703;BMP280;47622;47.726;3.298;2023-06-05T03:13:22;99106.91;;;16.73
61703;BMP280;47622;47.726;3.298;2023-06-05T03:15:48;99100.50;;;16.58
61703;BMP280;47622;47.726;3.298;2023-06-05T03:18:14;99098.91;;;16.53
61703;BMP280;47622;47.726;3.298;2023-06-05T03:20:39;99106.25;;;16.60
61703;BMP280;47622;47.726;3.298;2023-06-05T03:23:05;99107.91;;;16.52
61703;BMP280;47622;47.726;3.298;2023-06-05T03:25:30;99104.50;;;16.52
61703;BMP280;47622;47.726;3.298;2023-06-05T03:27:57;99111.94;;;16.46
61703;BMP280;47622;47.726;3.298;2023-06-05T03:30:23;99107.09;;;16.48
61703;BMP280;47622;47.726;3.298;2023-06-05T03:32:48;99114.09;;;16.56
61703;BMP280;47622;47.726;3.298;2023-06-05T03:35:14;99105.47;;;16.44
61703;BMP280;47622;47.726;3.298;2023-06-05T03:37:41;99109.28;;;16.46
61703;BMP280;47622;47.726;3.298;2023-06-05T03:40:07;99102.59;;;16.37
61703;BMP280;47622;47.726;3.298;2023-06-05T03:42:34;99111.84;;;16.27
61703;BMP280;47622;47.726;3.298;2023-06-05T03:45:00;99115.03;;;16.20
61703;BMP280;47622;47.726;3.298;2023-06-05T03:47:25;99113.41;;;16.16
61703;BMP280;47622;47.726;3.298;2023-06-05T03:49:53;99113.94;;;16.06
61703;BMP280;47622;47.726;3.298;2023-06-05T03:52:21;99112.34;;;16.17
61703;BMP280;47622;47.726;3.298;2023-06-05T03:54:48;99128.22;;;16.17
61703;BMP280;47622;47.726;3.298;2023-06-05T03:57:16;99122.41;;;16.11
61703;BMP280;47622;47.726;3.298;2023-06-05T03:59:41;99119.81;;;16.15
61703;BMP280;47622;47.726;3.298;2023-06-05T04:02:07;99119.25;;;16.21
61703;BMP280;47622;47.726;3.298;2023-06-05T04:04:32;99113.38;;;16.28
61703;BMP280;47622;47.726;3.298;2023-06-05T04:06:58;99115.56;;;16.26
61703;BMP280;47622;47.726;3.298;2023-06-05T04:09:23;99116.59;;;16.37
61703;BMP280;47622;47.726;3.298;2023-06-05T04:11:49;99118.69;;;16.28
61703;BMP280;47622;47.726;3.298;2023-06-05T04:14:16;99120.22;;;16.29
61703;BMP280;47622;47.726;3.298;2023-06-05T04:16:42;99114.72;;;16.22
61703;BMP280;47622;47.726;3.298;2023-06-05T04:19:09;99120.84;;;16.26
61703;BMP280;47622;47.726;3.298;2023-06-05T04:21:36;99120.50;;;16.12
61703;BMP280;47622;47.726;3.298;2023-06-05T04:24:05;99123.19;;;16.27
61703;BMP280;47622;47.726;3.298;2023-06-05T04:26:37;99129.31;;;16.32
61703;BMP280;47622;47.726;3.298;2023-06-05T04:29:04;99126.94;;;16.42
61703;BMP280;47622;47.726;3.298;2023-06-05T04:31:42;99126.53;;;16.40
61703;BMP280;47622;47.726;3.298;2023-06-05T04:34:08;99126.63;;;16.28
61703;BMP280;47622;47.726;3.298;2023-06-05T04:36:34;99135.69;;;16.43
61703;BMP280;47622;47.726;3.298;2023-06-05T04:39:00;99118.16;;;16.22
61703;BMP280;47622;47.726;3.298;2023-06-05T04:41:27;99135.41;;;16.32
61703;BMP280;47622;47.726;3.298;2023-06-05T04:43:55;99138.06;;;16.32
61703;BMP280;47622;47.726;3.298;2023-06-05T04:46:23;99135.22;;;16.25
61703;BMP280;47622;47.726;3.298;2023-06-05T04:48:48;99142.78;;;16.39
61703;BMP280;47622;47.726;3.298;2023-06-05T04:51:15;99134.88;;;16.42
61703;BMP280;47622;47.726;3.298;2023-06-05T04:53:41;99141.25;;;16.53
61703;BMP280;47622;47.726;3.298;2023-06-05T04:56:07;99145.69;;;16.49
61703;BMP280;47622;47.726;3.298;2023-06-05T04:58:33;99131.69;;;16.65
61703;BMP280;47622;47.726;3.298;2023-06-05T05:00:58;99140.72;;;16.64
61703;BMP280;47622;47.726;3.298;2023-06-05T05:03:31;99142.47;;;16.72
61703;BMP280;47622;47.726;3.298;2023-06-05T05:05:57;99146.47;;;16.81
61703;BMP280;47622;47.726;3.298;2023-06-05T05:08:22;99139.69;;;16.84
61703;BMP280;47622;47.726;3.298;2023-06-05T05:10:48;99139.31;;;16.82
61703;BMP280;47622;47.726;3.298;2023-06-05T05:13:13;99152.34;;;17.06
61703;BMP280;47622;47.726;3.298;2023-06-05T05:15:40;99154.22;;;17.06
61703;BMP280;47622;47.726;3.298;2023-06-05T05:18:06;99151.75;;;17.13
61703;BMP280;47622;47.726;3.298;2023-06-05T05:20:32;99149.19;;;17.01
61703;BMP280;47622;47.726;3.298;2023-06-05T05:23:01;99147.75;;;17.03
61703;BMP280;47622;47.726;3.298;2023-06-05T05:25:26;99150.53;;;17.10
61703;BMP280;47622;47.726;3.298;2023-06-05T05:27:53;99154.91;;;17.18
61703;BMP280;47622;47.726;3.298;2023-06-05T05:30:19;99153.16;;;17.26
61703;BMP280;47622;47.726;3.298;2023-06-05T05:32:45;99145.81;;;17.19
61703;BMP280;47622;47.726;3.298;2023-06-05T05:35:11;99150.72;;;17.17
61703;BMP280;47622;47.726;3.298;2023-06-05T05:37:37;99152.28;;;17.18
61703;BMP280;47622;47.726;3.298;2023-06-05T05:40:03;99158.47;;;17.26
61703;BMP280;47622;47.726;3.298;2023-06-05T05:42:31;99156.59;;;17.62
61703;BMP280;47622;47.726;3.298;2023-06-05T05:44:57;99155.72;;;17.92
61703;BMP280;47622;47.726;3.298;2023-06-05T05:47:23;99157.50;;;18.08
61703;BMP280;47622;47.726;3.298;2023-06-05T05:49:49;99157.63;;;18.15
61703;BMP280;47622;47.726;3.298;2023-06-05T05:52:17;99160.25;;;17.92
61703;BMP280;47622;47.726;3.298;2023-06-05T05:54:45;99149.59;;;18.11
61703;BMP280;47622;47.726;3.298;2023-06-05T05:57:11;99158.56;;;18.26
61703;BMP280;47622;47.726;3.298;2023-06-05T05:59:37;99154.06;;;18.49
61703;BMP280;47622;47.726;3.298;2023-06-05T06:02:03;99156.81;;;18.79
61703;BMP280;47622;47.726;3.298;2023-06-05T06:04:35;99161.06;;;19.10
61703;BMP280;47622;47.726;3.298;2023-06-05T06:07:01;99162.50;;;19.31
61703;BMP280;47622;47.726;3.298;2023-06-05T06:09:29;99160.41;;;19.47
61703;BMP280;47622;47.726;3.298;2023-06-05T06:11:54;99169.81;;;19.67
61703;BMP280;47622;47.726;3.298;2023-06-05T06:14:24;99165.50;;;19.92
61703;BMP280;47622;47.726;3.298;2023-06-05T06:16:49;99169.38;;;19.99
61703;BMP280;47622;47.726;3.298;2023-06-05T06:19:16;99179.63;;;20.37
61703;BMP280;47622;47.726;3.298;2023-06-05T06:21:42;99172.38;;;19.93
61703;BMP280;47622;47.726;3.298;2023-06-05T06:24:08;99188.78;;;19.99
61703;BMP280;47622;47.726;3.298;2023-06-05T06:26:34;99189.78;;;20.65
61703;BMP280;47622;47.726;3.298;2023-06-05T06:29:05;99185.88;;;22.64
61703;BMP280;47622;47.726;3.298;2023-06-05T06:31:30;99194.72;;;25.34
61703;BMP280;47622;47.726;3.298;2023-06-05T06:33:57;99206.13;;;27.21
61703;BMP280;47622;47.726;3.298;2023-06-05T06:36:22;99212.31;;;28.19
61703;BMP280;47622;47.726;3.298;2023-06-05T06:38:49;99217.03;;;27.50
61703;BMP280;47622;47.726;3.298;2023-06-05T06:41:14;99214.69;;;27.36
61703;BMP280;47622;47.726;3.298;2023-06-05T06:43:40;99218.22;;;27.65
61703;BMP280;47622;47.726;3.298;2023-06-05T06:46:06;99210.25;;;28.10
61703;BMP280;47622;47.726;3.298;2023-06-05T06:48:32;99218.50;;;28.03
61703;BMP280;47622;47.726;3.298;2023-06-05T06:50:58;99212.34;;;27.86
61703;BMP280;47622;47.726;3.298;2023-06-05T06:53:23;99207.28;;;26.18
61703;BMP280;47622;47.726;3.298;2023-06-05T06:55:49;99207.78;;;25.62
61703;BMP280;47622;47.726;3.298;2023-06-05T06:58:15;99205.88;;;24.16
61703;BMP280;47622;47.726;3.298;2023-06-05T07:00:41;99201.41;;;23.99
61703;BMP280;47622;47.726;3.298;2023-06-05T07:03:09;99192.75;;;22.55
61703;BMP280;47622;47.726;3.298;2023-06-05T07:05:42;99201.09;;;23.06
61703;BMP280;47622;47.726;3.298;2023-06-05T07:08:08;99204.88;;;23.16
61703;BMP280;47622;47.726;3.298;2023-06-05T07:10:36;99199.25;;;23.80
61703;BMP280;47622;47.726;3.298;2023-06-05T07:13:05;99204.19;;;25.12
61703;BMP280;47622;47.726;3.298;2023-06-05T07:15:31;99198.28;;;25.54
61703;BMP280;47622;47.726;3.298;2023-06-05T07:17:59;99201.16;;;26.40
61703;BMP280;47622;47.726;3.298;2023-06-05T07:20:25;99206.31;;;28.98
61703;BMP280;47622;47.726;3.298;2023-06-05T07:22:51;99209.50;;;30.81
61703;BMP280;47622;47.726;3.298;2023-06-05T07:25:17;99215.94;;;31.14
61703;BMP280;47622;47.726;3.298;2023-06-05T07:27:46;99214.28;;;30.77
61703;BMP280;47622;47.726;3.298;2023-06-05T07:30:11;99227.03;;;32.66
61703;BMP280;47622;47.726;3.298;2023-06-05T07:32:38;99231.19;;;32.43
61703;BMP280;47622;47.726;3.298;2023-06-05T07:35:03;99232.44;;;32.06
61703;BMP280;47622;47.726;3.298;2023-06-05T07:37:29;99237.22;;;33.69
61703;BMP280;47622;47.726;3.298;2023-06-05T07:39:54;99234.75;;;34.69
61703;BMP280;47622;47.726;3.298;2023-06-05T07:42:20;99236.00;;;35.43
61703;BMP280;47622;47.726;3.298;2023-06-05T07:44:45;99240.41;;;35.61
61703;BMP280;47622;47.726;3.298;2023-06-05T07:47:11;99231.06;;;33.84
61703;BMP280;47622;47.726;3.298;2023-06-05T07:49:36;99234.91;;;35.35
61703;BMP280;47622;47.726;3.298;2023-06-05T07:52:02;99241.81;;;35.50
61703;BMP280;47622;47.726;3.298;2023-06-05T07:54:28;99234.97;;;35.20
61703;BMP280;47622;47.726;3.298;2023-06-05T07:56:54;99223.34;;;33.20
61703;BMP280;47622;47.726;3.298;2023-06-05T07:59:23;99227.44;;;33.39
61703;BMP280;47622;47.726;3.298;2023-06-05T08:01:54;99223.91;;;33.71
61703;BMP280;47622;47.726;3.298;2023-06-05T08:04:21;99228.00;;;34.99
61703;BMP280;47622;47.726;3.298;2023-06-05T08:06:50;99232.66;;;35.13
61703;BMP280;47622;47.726;3.298;2023-06-05T08:09:17;99226.06;;;35.86
61703;BMP280;47622;47.726;3.298;2023-06-05T08:11:43;99226.72;;;35.35
61703;BMP280;47622;47.726;3.298;2023-06-05T08:14:09;99224.34;;;34.23
61703;BMP280;47622;47.726;3.298;2023-06-05T08:16:35;99229.22;;;35.59
61703;BMP280;47622;47.726;3.298;2023-06-05T08:19:01;99217.72;;;34.74
61703;BMP280;47622;47.726;3.298;2023-06-05T08:21:28;99228.59;;;35.95
61703;BMP280;47622;47.726;3.298;2023-06-05T08:23:54;99229.69;;;36.03
61703;BMP280;47622;47.726;3.298;2023-06-05T08:26:22;99219.38;;;36.18
61703;BMP280;47622;47.726;3.298;2023-06-05T08:28:49;99235.13;;;36.29
61703;BMP280;47622;47.726;3.298;2023-06-05T08:31:16;99228.59;;;36.95
61703;BMP280;47622;47.726;3.298;2023-06-05T08:33:42;99226.19;;;34.61
61703;BMP280;47622;47.726;3.298;2023-06-05T08:36:08;99220.25;;;35.12
61703;BMP280;47622;47.726;3.298;2023-06-05T08:38:34;99226.47;;;35.79
61703;BMP280;47622;47.726;3.298;2023-06-05T08:41:05;99216.84;;;35.83
61703;BMP280;47622;47.726;3.298;2023-06-05T08:43:39;99222.28;;;36.09
61703;BMP280;47622;47.726;3.298;2023-06-05T08:46:08;99209.84;;;35.57
61703;BMP280;47622;47.726;3.298;2023-06-05T08:48:41;99209.41;;;35.18
61703;BMP280;47622;47.726;3.298;2023-06-05T08:51:09;99212.25;;;34.74
61703;BMP280;47622;47.726;3.298;2023-06-05T08:53:39;99211.63;;;35.60
61703;BMP280;47622;47.726;3.298;2023-06-05T08:56:06;99214.47;;;34.90
61703;BMP280;47622;47.726;3.298;2023-06-05T08:58:34;99206.88;;;35.14
61703;BMP280;47622;47.726;3.298;2023-06-05T09:01:03;99208.09;;;33.37
61703;BMP280;47622;47.726;3.298;2023-06-05T09:03:29;99204.31;;;33.11
61703;BMP280;47622;47.726;3.298;2023-06-05T09:05:55;99203.75;;;31.68
61703;BMP280;47622;47.726;3.298;2023-06-05T09:08:28;99198.94;;;31.14
61703;BMP280;47622;47.726;3.298;2023-06-05T09:13:46;99204.03;;;31.61
61703;BMP280;47622;47.726;3.298;2023-06-05T09:16:11;99200.59;;;31.11
61703;BMP280;47622;47.726;3.298;2023-06-05T09:18:54;99205.81;;;31.37
61703;BMP280;47622;47.726;3.298;2023-06-05T09:21:21;99197.59;;;30.26
61703;BMP280;47622;47.726;3.298;2023-06-05T09:23:46;99196.06;;;29.05
61703;BMP280;47622;47.726;3.298;2023-06-05T09:26:12;99197.94;;;29.81
61703;BMP280;47622;47.726;3.298;2023-06-05T09:28:52;99194.31;;;28.99
61703;BMP280;47622;47.726;3.298;2023-06-05T09:31:18;99201.53;;;28.03
61703;BMP280;47622;47.726;3.298;2023-06-05T09:33:45;99190.75;;;28.89
61703;BMP280;47622;47.726;3.298;2023-06-05T09:36:19;99188.75;;;28.64
61703;BMP280;47622;47.726;3.298;2023-06-05T09:38:45;99185.94;;;28.39
61703;BMP280;47622;47.726;3.298;2023-06-05T09:41:13;99183.34;;;27.90
61703;BMP280;47622;47.726;3.298;2023-06-05T09:43:44;99192.44;;;28.70
61703;BMP280;47622;47.726;3.298;2023-06-05T09:46:14;99179.09;;;29.05
61703;BMP280;47622;47.726;3.298;2023-06-05T09:48:41;99183.88;;;27.85
61703;BMP280;47622;47.726;3.298;2023-06-05T09:51:16;99181.47;;;29.03
61703;BMP280;47622;47.726;3.298;2023-06-05T09:53:49;99183.97;;;29.82
61703;BMP280;47622;47.726;3.298;2023-06-05T09:56:16;99195.16;;;31.11
61703;BMP280;47622;47.726;3.298;2023-06-05T10:01:10;99178.38;;;30.11
61703;BMP280;47622;47.726;3.298;2023-06-05T10:03:37;99186.03;;;30.56
61703;BMP280;47622;47.726;3.298;2023-06-05T10:06:05;99182.41;;;29.60
61703;BMP280;47622;47.726;3.298;2023-06-05T10:08:32;99181.13;;;29.39
61703;BMP280;47622;47.726;3.298;2023-06-05T10:10:57;99178.53;;;29.35
61703;BMP280;47622;47.726;3.298;2023-06-05T10:13:23;99184.72;;;29.36
61703;BMP280;47622;47.726;3.298;2023-06-05T10:15:52;99174.81;;;29.54
61703;BMP280;47622;47.726;3.298;2023-06-05T10:18:18;99172.19;;;29.76
61703;BMP280;47622;47.726;3.298;2023-06-05T10:20:46;99177.25;;;30.74
61703;BMP280;47622;47.726;3.298;2023-06-05T10:23:15;99183.44;;;30.53
61703;BMP280;47622;47.726;3.298;2023-06-05T10:25:46;99177.91;;;30.13
61703;BMP280;47622;47.726;3.298;2023-06-05T10:28:38;99178.69;;;30.35
61703;BMP280;47622;47.726;3.298;2023-06-05T10:31:23;99180.47;;;29.60
61703;BMP280;47622;47.726;3.298;2023-06-05T10:34:14;99174.00;;;29.92
61703;BMP280;47622;47.726;3.298;2023-06-05T10:39:23;99170.63;;;30.01
61703;BMP280;47622;47.726;3.298;2023-06-05T10:41:51;99169.44;;;28.78
61703;BMP280;47622;47.726;3.298;2023-06-05T10:44:17;99169.13;;;29.02
61703;BMP280;47622;47.726;3.298;2023-06-05T10:46:43;99168.41;;;29.27
61703;BMP280;47622;47.726;3.298;2023-06-05T10:51:49;99166.31;;;30.56
61703;BMP280;47622;47.726;3.298;2023-06-05T10:57:05;99164.25;;;29.47
61703;BMP280;47622;47.726;3.298;2023-06-05T10:59:39;99166.84;;;30.42
61703;BMP280;47622;47.726;3.298;2023-06-05T11:07:20;99170.34;;;30.73
61703;BMP280;47622;47.726;3.298;2023-06-05T11:15:10;99166.53;;;32.56
61703;BMP280;47622;47.726;3.298;2023-06-05T11:17:46;99177.34;;;32.74
61703;BMP280;47622;47.726;3.298;2023-06-05T11:27:51;99166.66;;;30.67
61703;BMP280;47622;47.726;3.298;2023-06-05T11:30:19;99167.28;;;31.02
61703;BMP280;47622;47.726;3.298;2023-06-05T11:32:46;99160.16;;;31.53
61703;BMP280;47622;47.726;3.298;2023-06-05T11:35:13;99163.47;;;30.90
61703;BMP280;47622;47.726;3.298;2023-06-05T11:37:40;99159.97;;;31.20
61703;BMP280;47622;47.726;3.298;2023-06-05T11:40:07;99166.72;;;30.76
61703;BMP280;47622;47.726;3.298;2023-06-05T11:42:36;99158.44;;;31.10
61703;BMP280;47622;47.726;3.298;2023-06-05T11:45:13;99161.97;;;30.89
61703;BMP280;47622;47.726;3.298;2023-06-05T11:47:40;99156.22;;;31.45
61703;BMP280;47622;47.726;3.298;2023-06-05T11:50:07;99156.63;;;31.16
61703;BMP280;47622;47.726;3.298;2023-06-05T11:52:35;99152.25;;;30.70
61703;BMP280;47622;47.726;3.298;2023-06-05T11:55:18;99152.16;;;31.41
61703;BMP280;47622;47.726;3.298;2023-06-05T11:57:48;99150.59;;;30.42
61703;BMP280;47622;47.726;3.298;2023-06-05T12:00:15;99147.94;;;30.82
61703;BMP280;47622;47.726;3.298;2023-06-05T12:02:47;99152.59;;;31.30
61703;BMP280;47622;47.726;3.298;2023-06-05T12:05:14;99150.31;;;31.29
61703;BMP280;47622;47.726;3.298;2023-06-05T12:07:40;99148.56;;;31.53
61703;BMP280;47622;47.726;3.298;2023-06-05T12:10:08;99144.94;;;30.27
61703;BMP280;47622;47.726;3.298;2023-06-05T12:12:34;99149.97;;;29.94
61703;BMP280;47622;47.726;3.298;2023-06-05T12:15:27;99146.09;;;31.18
61703;BMP280;47622;47.726;3.298;2023-06-05T12:17:55;99141.03;;;31.57
61703;BMP280;47622;47.726;3.298;2023-06-05T12:20:22;99136.94;;;30.02
61703;BMP280;47622;47.726;3.298;2023-06-05T12:22:49;99148.72;;;30.29
61703;BMP280;47622;47.726;3.298;2023-06-05T12:25:19;99135.72;;;29.81
61703;BMP280;47622;47.726;3.298;2023-06-05T12:27:45;99134.97;;;30.02
61703;BMP280;47622;47.726;3.298;2023-06-05T12:30:12;99128.47;;;30.12
61703;BMP280;47622;47.726;3.298;2023-06-05T12:32:38;99131.66;;;30.42
61703;BMP280;47622;47.726;3.298;2023-06-05T12:35:23;99123.91;;;30.09
61703;BMP280;47622;47.726;3.298;2023-06-05T12:37:59;99104.41;;;30.14
61703;BMP280;47622;47.726;3.298;2023-06-05T12:40:24;99123.78;;;29.91
61703;BMP280;47622;47.726;3.298;2023-06-05T12:42:50;99132.19;;;29.71
61703;BMP280;47622;47.726;3.298;2023-06-05T12:45:15;99126.97;;;29.17
61703;BMP280;47622;47.726;3.298;2023-06-05T12:47:42;99113.16;;;29.15
61703;BMP280;47622;47.726;3.298;2023-06-05T12:50:09;99124.97;;;29.90
61703;BMP280;47622;47.726;3.298;2023-06-05T12:52:38;99110.50;;;29.84
61703;BMP280;47622;47.726;3.298;2023-06-05T12:55:04;99114.59;;;30.10
61703;BMP280;47622;47.726;3.298;2023-06-05T12:57:31;99116.16;;;29.42
61703;BMP280;47622;47.726;3.298;2023-06-05T12:59:57;99112.47;;;30.05
61703;BMP280;47622;47.726;3.298;2023-06-05T13:02:23;99116.00;;;29.58
61703;BMP280;47622;47.726;3.298;2023-06-05T13:04:49;99119.84;;;30.35
61703;BMP280;47622;47.726;3.298;2023-06-05T13:07:14;99118.84;;;30.42
61703;BMP280;47622;47.726;3.298;2023-06-05T13:09:43;99123.44;;;31.03
61703;BMP280;47622;47.726;3.298;2023-06-05T13:12:09;99108.38;;;30.93
61703;BMP280;47622;47.726;3.298;2023-06-05T13:14:34;99108.22;;;30.57
61703;BMP280;47622;47.726;3.298;2023-06-05T13:17:02;99108.25;;;30.97
61703;BMP280;47622;47.726;3.298;2023-06-05T13:19:27;99112.44;;;30.89
61703;BMP280;47622;47.726;3.298;2023-06-05T13:21:53;99103.31;;;29.90
61703;BMP280;47622;47.726;3.298;2023-06-05T13:24:19;99105.16;;;30.36
61703;BMP280;47622;47.726;3.298;2023-06-05T13:26:45;99103.91;;;29.85
61703;BMP280;47622;47.726;3.298;2023-06-05T13:29:12;99104.47;;;29.80
61703;BMP280;47622;47.726;3.298;2023-06-05T13:31:38;99107.66;;;29.66
61703;BMP280;47622;47.726;3.298;2023-06-05T13:34:05;99106.84;;;29.43
61703;BMP280;47622;47.726;3.298;2023-06-05T13:36:31;99100.13;;;30.26
61703;BMP280;47622;47.726;3.298;2023-06-05T13:38:57;99105.66;;;30.84
61703;BMP280;47622;47.726;3.298;2023-06-05T13:41:22;99108.03;;;30.42
61703;BMP280;47622;47.726;3.298;2023-06-05T13:43:48;99098.09;;;29.74
61703;BMP280;47622;47.726;3.298;2023-06-05T13:46:15;99101.28;;;29.94
61703;BMP280;47622;47.726;3.298;2023-06-05T13:48:42;99105.53;;;30.26
61703;BMP280;47622;47.726;3.298;2023-06-05T13:51:08;99098.97;;;30.14
61703;BMP280;47622;47.726;3.298;2023-06-05T13:53:34;99087.94;;;30.61
61703;BMP280;47622;47.726;3.298;2023-06-05T13:56:03;99089.53;;;30.50
61703;BMP280;47622;47.726;3.298;2023-06-05T13:58:29;99096.28;;;30.45
61703;BMP280;47622;47.726;3.298;2023-06-05T14:00:56;99092.53;;;30.83
61703;BMP280;47622;47.726;3.298;2023-06-05T14:03:23;99089.09;;;30.51
61703;BMP280;47622;47.726;3.298;2023-06-05T14:05:48;99091.22;;;30.96
61703;BMP280;47622;47.726;3.298;2023-06-05T14:08:14;99091.78;;;30.82
61703;BMP280;47622;47.726;3.298;2023-06-05T14:10:41;99076.16;;;30.46
61703;BMP280;47622;47.726;3.298;2023-06-05T14:13:07;99078.41;;;30.48
61703;BMP280;47622;47.726;3.298;2023-06-05T14:15:33;99081.50;;;30.06
61703;BMP280;47622;47.726;3.298;2023-06-05T14:18:03;99070.16;;;30.20
61703;BMP280;47622;47.726;3.298;2023-06-05T14:20:29;99075.63;;;30.08
61703;BMP280;47622;47.726;3.298;2023-06-05T14:22:58;99073.94;;;30.01
61703;BMP280;47622;47.726;3.298;2023-06-05T14:25:24;99078.84;;;30.15
61703;BMP280;47622;47.726;3.298;2023-06-05T14:27:57;99082.91;;;29.89
61703;BMP280;47622;47.726;3.298;2023-06-05T14:30:23;99071.50;;;29.94
61703;BMP280;47622;47.726;3.298;2023-06-05T14:32:50;99066.25;;;30.21
61703;BMP280;47622;47.726;3.298;2023-06-05T14:35:16;99070.88;;;30.43
61703;BMP280;47622;47.726;3.298;2023-06-05T14:37:42;99060.13;;;30.70
61703;BMP280;47622;47.726;3.298;2023-06-05T14:40:08;99061.84;;;30.15
61703;BMP280;47622;47.726;3.298;2023-06-05T14:42:34;99064.81;;;30.38
61703;BMP280;47622;47.726;3.298;2023-06-05T14:45:00;99067.13;;;30.18